createdAt,value
2018-12-27T00:00:02.783Z,16.30
2018-12-27T00:02:54.881Z,25.53
2018-12-27T00:05:40.418Z,23.20
2018-12-27T00:08:28.417Z,19.43
2018-12-27T00:11:16.350Z,22.30
2018-12-27T00:14:04.347Z,26.30
2018-12-27T00:16:52.324Z,21.83
2018-12-27T00:19:40.381Z,24.53
2018-12-27T00:22:28.315Z,27.30
2018-12-27T00:25:16.301Z,19.47
2018-12-27T00:28:04.153Z,20.00
2018-12-27T00:30:32.949Z,19.50
2018-12-27T00:33:20.902Z,23.00
2018-12-27T00:36:08.905Z,16.40
2018-12-27T00:38:56.941Z,19.67
2018-12-27T00:41:25.713Z,16.77
2018-12-27T00:44:13.700Z,20.53
2018-12-27T00:46:42.449Z,20.33
2018-12-27T00:49:11.247Z,21.60
2018-12-27T00:51:40.001Z,23.60
2018-12-27T00:54:28.048Z,19.50
2018-12-27T00:56:56.798Z,20.60
2018-12-27T00:59:44.798Z,24.53
2018-12-27T01:02:13.600Z,18.00
2018-12-27T01:04:42.337Z,18.60
2018-12-27T01:07:11.232Z,19.47
2018-12-27T01:10:00.855Z,16.07
2018-12-27T01:12:29.604Z,16.03
2018-12-27T01:15:17.531Z,20.27
2018-12-27T01:17:46.331Z,16.17
2018-12-27T01:23:02.754Z,18.97
2018-12-27T01:25:31.505Z,18.60
2018-12-27T01:28:19.506Z,18.80
2018-12-27T01:33:54.987Z,21.50
2018-12-27T01:36:23.793Z,21.83
2018-12-27T01:38:52.567Z,20.73
2018-12-27T01:41:21.315Z,22.60
2018-12-27T01:43:50.102Z,16.30
2018-12-27T01:46:38.229Z,18.43
2018-12-27T01:49:06.970Z,16.13
2018-12-27T01:51:54.893Z,12.87
2018-12-27T01:54:23.638Z,20.07
2018-12-27T01:56:52.422Z,16.57
2018-12-27T01:59:21.213Z,14.10
2018-12-27T02:01:50.099Z,22.53
2018-12-27T02:04:18.848Z,20.43
2018-12-27T02:06:47.642Z,13.77
2018-12-27T02:12:23.349Z,16.57
2018-12-27T02:14:52.107Z,14.10
2018-12-27T02:17:20.906Z,16.33
2018-12-27T02:19:49.683Z,16.33
2018-12-27T02:25:27.474Z,15.87
2018-12-27T02:30:30.841Z,13.67
2018-12-27T02:33:41.114Z,17.47
2018-12-27T02:36:09.889Z,18.33
2018-12-27T02:38:38.695Z,12.87
2018-12-27T02:41:07.440Z,15.83
2018-12-27T02:43:36.244Z,13.97
2018-12-27T02:49:12.002Z,13.67
2018-12-27T02:51:40.838Z,14.83
2018-12-27T02:54:09.626Z,18.03
2018-12-27T02:56:38.497Z,13.47
2018-12-27T02:59:09.024Z,12.57
2018-12-27T03:01:37.774Z,11.80
2018-12-27T03:04:06.526Z,10.37
2018-12-27T03:06:35.351Z,13.13
2018-12-27T03:11:58.962Z,16.30
2018-12-27T03:14:47.052Z,8.80
2018-12-27T03:17:15.886Z,12.33
2018-12-27T03:22:32.313Z,11.53
2018-12-27T03:25:01.072Z,12.57
2018-12-27T03:27:29.864Z,15.27
2018-12-27T03:29:58.671Z,16.17
2018-12-27T03:32:27.435Z,14.03
2018-12-27T03:34:56.234Z,16.60
2018-12-27T03:37:25.031Z,12.63
2018-12-27T03:39:53.853Z,12.10
2018-12-27T03:42:22.627Z,11.90
2018-12-27T03:45:10.819Z,13.50
2018-12-27T03:47:39.554Z,10.30
2018-12-27T03:53:01.303Z,10.23
2018-12-27T03:55:30.056Z,12.20
2018-12-27T03:57:58.869Z,8.97
2018-12-27T04:00:27.666Z,15.53
2018-12-27T04:03:15.674Z,16.20
2018-12-27T04:05:44.451Z,20.30
2018-12-27T04:08:13.261Z,12.93
2018-12-27T04:13:35.136Z,13.27
2018-12-27T04:16:23.137Z,14.87
2018-12-27T04:19:11.198Z,11.80
2018-12-27T04:21:59.272Z,14.17
2018-12-27T04:25:07.372Z,14.60
2018-12-27T04:27:55.461Z,9.20
2018-12-27T04:30:43.832Z,10.37
2018-12-27T04:33:52.430Z,11.13
2018-12-27T04:37:01.019Z,9.73
2018-12-27T04:39:49.016Z,13.47
2018-12-27T04:42:57.560Z,11.50
2018-12-27T04:45:45.494Z,9.07
2018-12-27T04:48:33.559Z,10.97
2018-12-27T04:51:21.544Z,11.30
2018-12-27T04:54:09.500Z,12.20
2018-12-27T04:56:57.558Z,11.97
2018-12-27T04:59:45.514Z,9.20
2018-12-27T05:02:33.502Z,11.47
2018-12-27T05:05:21.446Z,12.93
2018-12-27T05:08:09.454Z,12.93
2018-12-27T05:10:57.468Z,10.53
2018-12-27T05:13:45.448Z,11.00
2018-12-27T05:16:33.403Z,10.87
2018-12-27T05:19:21.466Z,10.00
2018-12-27T05:22:41.925Z,11.00
2018-12-27T05:25:19.657Z,10.47
2018-12-27T05:28:07.720Z,8.63
2018-12-27T05:30:55.715Z,10.63
2018-12-27T05:33:43.744Z,10.40
2018-12-27T05:36:31.804Z,11.07
2018-12-27T05:39:19.882Z,14.33
2018-12-27T05:42:07.842Z,13.00
2018-12-27T05:44:55.910Z,10.73
2018-12-27T05:47:43.795Z,8.53
2018-12-27T05:50:31.803Z,13.20
2018-12-27T05:53:19.748Z,9.33
2018-12-27T05:56:07.811Z,7.87
2018-12-27T05:58:55.815Z,8.63
2018-12-27T06:01:43.808Z,8.13
2018-12-27T06:04:33.845Z,8.90
2018-12-27T06:07:21.521Z,9.77
2018-12-27T06:10:09.473Z,10.20
2018-12-27T06:12:57.467Z,11.77
2018-12-27T06:15:45.430Z,10.20
2018-12-27T06:18:33.492Z,11.70
2018-12-27T06:21:21.493Z,10.77
2018-12-27T06:24:09.523Z,9.90
2018-12-27T06:26:57.518Z,11.93
2018-12-27T06:29:45.551Z,13.87
2018-12-27T06:32:33.538Z,12.47
2018-12-27T06:35:21.435Z,11.53
2018-12-27T06:38:09.482Z,9.67
2018-12-27T06:40:57.507Z,9.93
2018-12-27T06:43:45.557Z,10.43
2018-12-27T06:46:33.578Z,12.93
2018-12-27T06:49:21.559Z,8.53
2018-12-27T06:52:09.457Z,9.87
2018-12-27T06:54:57.453Z,11.90
2018-12-27T06:57:45.406Z,10.70
2018-12-27T07:00:33.471Z,11.47
2018-12-27T07:03:21.537Z,12.47
2018-12-27T07:06:09.566Z,11.87
2018-12-27T07:08:57.611Z,13.40
2018-12-27T07:11:45.584Z,9.53
2018-12-27T07:14:33.589Z,12.07
2018-12-27T07:17:21.687Z,11.67
2018-12-27T07:20:09.623Z,9.87
2018-12-27T07:22:57.659Z,10.67
2018-12-27T07:25:45.689Z,12.47
2018-12-27T07:28:33.753Z,10.70
2018-12-27T07:31:21.778Z,12.27
2018-12-27T07:34:09.857Z,12.27
2018-12-27T07:36:57.807Z,10.40
2018-12-27T07:39:45.792Z,14.70
2018-12-27T07:42:33.747Z,8.87
2018-12-27T07:45:21.803Z,16.20
2018-12-27T07:48:09.793Z,12.33
2018-12-27T07:50:57.798Z,11.13
2018-12-27T07:53:45.797Z,10.57
2018-12-27T07:56:33.755Z,13.13
2018-12-27T07:59:21.733Z,13.07
2018-12-27T08:02:09.790Z,12.87
2018-12-27T08:05:04.010Z,13.57
2018-12-27T08:07:47.336Z,11.43
2018-12-27T08:10:35.267Z,12.73
2018-12-27T08:13:23.324Z,12.50
2018-12-27T08:16:11.337Z,16.20
2018-12-27T08:18:59.384Z,16.27
2018-12-27T08:21:47.358Z,13.90
2018-12-27T08:24:35.338Z,11.27
2018-12-27T08:27:23.336Z,15.67
2018-12-27T08:30:11.451Z,17.60
2018-12-27T08:35:54.463Z,14.67
2018-12-27T08:38:42.505Z,15.33
2018-12-27T08:41:30.507Z,13.23
2018-12-27T08:44:18.492Z,16.37
2018-12-27T08:47:06.540Z,9.13
2018-12-27T08:49:54.611Z,12.23
2018-12-27T08:52:42.554Z,13.03
2018-12-27T08:55:30.664Z,14.77
2018-12-27T09:01:25.672Z,13.77
2018-12-27T09:04:13.619Z,20.77
2018-12-27T09:09:55.239Z,18.00
2018-12-27T09:12:43.257Z,14.93
2018-12-27T09:15:32.923Z,14.80
2018-12-27T09:18:22.545Z,14.93
2018-12-27T09:21:10.774Z,12.13
2018-12-27T09:24:19.319Z,15.70
2018-12-27T09:27:07.299Z,14.10
2018-12-27T09:29:55.358Z,17.47
2018-12-27T09:35:32.964Z,11.73
2018-12-27T09:38:20.910Z,13.77
2018-12-27T09:41:08.895Z,12.53
2018-12-27T09:43:56.783Z,11.67
2018-12-27T09:46:44.710Z,13.87
2018-12-27T09:49:32.735Z,13.00
2018-12-27T09:52:20.798Z,13.83
2018-12-27T09:55:08.860Z,12.57
2018-12-27T09:57:56.801Z,13.87
2018-12-27T10:00:44.740Z,14.73
2018-12-27T10:03:13.482Z,15.80
2018-12-27T10:06:01.546Z,12.47
2018-12-27T10:08:49.486Z,17.03
2018-12-27T10:11:37.543Z,13.73
2018-12-27T10:14:25.540Z,15.07
2018-12-27T10:17:13.596Z,13.23
2018-12-27T10:20:01.583Z,15.63
2018-12-27T10:22:49.606Z,16.93
2018-12-27T10:25:37.659Z,14.00
2018-12-27T10:28:25.689Z,12.53
2018-12-27T10:30:59.802Z,14.73
2018-12-27T10:33:25.021Z,13.73
2018-12-27T10:35:53.773Z,14.93
2018-12-27T10:38:22.579Z,17.27
2018-12-27T10:40:51.352Z,16.00
2018-12-27T10:43:20.156Z,13.40
2018-12-27T10:46:08.098Z,13.57
2018-12-27T10:48:56.071Z,12.70
2018-12-27T10:51:44.119Z,11.50
2018-12-27T10:54:12.865Z,11.20
2018-12-27T10:56:41.670Z,11.33
2018-12-27T10:59:10.424Z,13.57
2018-12-27T11:01:39.168Z,12.60
2018-12-27T11:04:07.973Z,13.23
2018-12-27T11:06:56.031Z,10.80
2018-12-27T11:09:44.048Z,10.97
2018-12-27T11:12:12.854Z,11.67
2018-12-27T11:14:41.654Z,12.07
2018-12-27T11:17:10.428Z,15.23
2018-12-27T11:19:39.352Z,14.60
2018-12-27T11:22:08.109Z,18.47
2018-12-27T11:24:36.909Z,18.13
2018-12-27T11:27:24.888Z,15.20
2018-12-27T11:30:12.993Z,17.90
2018-12-27T11:32:41.783Z,42.00
2018-12-27T11:35:29.723Z,41.57
2018-12-27T11:38:17.723Z,279.53
2018-12-27T11:40:46.515Z,241.33
2018-12-27T11:43:41.354Z,67.17
2018-12-27T11:46:29.414Z,22.70
2018-12-27T11:49:17.439Z,22.57
2018-12-27T11:52:05.515Z,19.30
2018-12-27T11:54:53.467Z,42.30
2018-12-27T11:57:41.507Z,23.57
2018-12-27T12:00:50.054Z,14.17
2018-12-27T12:03:18.867Z,111.03
2018-12-27T12:06:06.850Z,89.80
2018-12-27T12:08:54.785Z,33.60
2018-12-27T12:11:42.747Z,28.53
2018-12-27T12:14:30.687Z,21.27
2018-12-27T12:17:39.287Z,21.40
2018-12-27T12:20:47.884Z,22.57
2018-12-27T12:23:35.837Z,17.90
2018-12-27T12:26:04.646Z,17.83
2018-12-27T12:28:52.708Z,14.00
2018-12-27T12:31:40.589Z,20.27
2018-12-27T12:34:09.457Z,16.27
2018-12-27T12:37:17.995Z,15.73
2018-12-27T12:40:06.001Z,19.37
2018-12-27T12:42:54.073Z,16.47
2018-12-27T12:45:22.846Z,17.50
2018-12-27T12:47:51.601Z,15.87
2018-12-27T12:50:39.668Z,19.53
2018-12-27T12:53:27.688Z,21.10
2018-12-27T12:55:56.477Z,16.67
2018-12-27T12:58:25.237Z,16.33
2018-12-27T13:00:54.030Z,18.27
2018-12-27T13:03:23.006Z,16.73
2018-12-27T13:06:17.806Z,15.07
2018-12-27T13:08:41.483Z,23.50
2018-12-27T13:13:57.940Z,16.60
2018-12-27T13:16:46.013Z,21.33
2018-12-27T13:19:14.904Z,16.80
2018-12-27T13:22:02.952Z,27.07
2018-12-27T13:24:31.763Z,32.17
2018-12-27T13:27:19.824Z,27.67
2018-12-27T13:30:07.896Z,26.00
2018-12-27T13:32:55.940Z,22.33
2018-12-27T13:35:44.008Z,20.33
2018-12-27T13:38:12.791Z,21.90
2018-12-27T13:41:00.858Z,19.80
2018-12-27T13:43:48.929Z,18.40
2018-12-27T13:46:37.002Z,18.83
2018-12-27T13:49:25.076Z,16.03
2018-12-27T13:52:13.093Z,14.33
2018-12-27T13:55:01.243Z,14.03
2018-12-27T13:57:49.221Z,13.07
2018-12-27T14:00:18.024Z,14.33
2018-12-27T14:03:06.043Z,14.23
2018-12-27T14:05:53.959Z,11.37
2018-12-27T14:11:10.461Z,13.23
2018-12-27T14:13:58.511Z,12.57
2018-12-27T14:16:27.436Z,14.07
2018-12-27T14:19:15.599Z,12.30
2018-12-27T14:22:24.192Z,10.80
2018-12-27T14:25:12.256Z,11.57
2018-12-27T14:27:41.054Z,10.97
2018-12-27T14:30:10.411Z,9.47
2018-12-27T14:32:39.224Z,13.57
2018-12-27T14:35:07.993Z,14.20
2018-12-27T14:37:36.804Z,12.37
2018-12-27T14:40:45.391Z,11.50
2018-12-27T14:43:14.189Z,13.83
2018-12-27T14:45:42.941Z,13.73
2018-12-27T14:48:30.938Z,17.53
2018-12-27T14:51:18.949Z,16.03
2018-12-27T14:57:01.014Z,16.17
2018-12-27T14:59:29.817Z,13.43
2018-12-27T15:01:58.579Z,18.27
2018-12-27T15:04:46.649Z,19.33
2018-12-27T15:07:15.456Z,15.50
2018-12-27T15:09:44.287Z,21.17
2018-12-27T15:12:32.469Z,19.30
2018-12-27T15:15:20.528Z,15.07
2018-12-27T15:18:08.468Z,18.77
2018-12-27T15:20:56.520Z,19.00
2018-12-27T15:26:12.898Z,20.53
2018-12-27T15:29:01.010Z,16.93
2018-12-27T15:31:49.276Z,21.63
2018-12-27T15:34:37.297Z,19.60
2018-12-27T15:37:25.325Z,16.73
2018-12-27T15:40:13.266Z,17.50
2018-12-27T15:43:01.210Z,17.10
2018-12-27T15:45:49.214Z,16.33
2018-12-27T15:48:37.292Z,18.03
2018-12-27T15:51:25.361Z,13.33
2018-12-27T15:54:13.394Z,17.47
2018-12-27T15:56:42.154Z,15.63
2018-12-27T15:59:30.151Z,15.37
2018-12-27T16:02:18.116Z,16.00
2018-12-27T16:05:06.072Z,17.60
2018-12-27T16:07:54.016Z,21.37
2018-12-27T16:10:22.768Z,16.30
2018-12-27T16:13:10.765Z,12.93
2018-12-27T16:15:58.796Z,18.83
2018-12-27T16:18:46.783Z,15.87
2018-12-27T16:21:34.729Z,15.83
2018-12-27T16:27:29.917Z,25.63
2018-12-27T16:30:17.969Z,30.40
2018-12-27T16:33:05.865Z,26.50
2018-12-27T16:35:54.005Z,49.77
2018-12-27T16:38:42.005Z,45.07
2018-12-27T16:41:30.072Z,34.10
2018-12-27T16:43:58.848Z,32.30
2018-12-27T16:46:27.656Z,35.47
2018-12-27T16:49:15.683Z,29.70
2018-12-27T16:52:03.667Z,29.10
2018-12-27T16:54:51.696Z,31.83
2018-12-27T16:57:20.613Z,32.60
2018-12-27T17:00:10.013Z,26.30
2018-12-27T17:02:57.956Z,27.67
2018-12-27T17:05:46.006Z,33.67
2018-12-27T17:08:34.089Z,34.07
2018-12-27T17:11:22.162Z,30.00
2018-12-27T17:14:10.176Z,47.40
2018-12-27T17:16:58.197Z,34.53
2018-12-27T17:19:27.006Z,34.83
2018-12-27T17:21:55.796Z,35.10
2018-12-27T17:24:24.586Z,32.70
2018-12-27T17:26:53.394Z,37.30
2018-12-27T17:29:22.231Z,31.33
2018-12-27T17:31:51.109Z,29.23
2018-12-27T17:37:28.038Z,29.67
2018-12-27T17:39:56.852Z,27.57
2018-12-27T17:42:25.685Z,28.47
2018-12-27T17:44:54.448Z,39.57
2018-12-27T17:47:23.442Z,40.63
2018-12-27T17:50:33.730Z,34.53
2018-12-27T17:53:02.587Z,26.23
2018-12-27T17:55:50.687Z,33.57
2018-12-27T17:58:59.685Z,28.93
2018-12-27T18:04:42.787Z,28.70
2018-12-27T18:07:51.507Z,37.03
2018-12-27T18:10:39.569Z,37.07
2018-12-27T18:13:08.350Z,34.93
2018-12-27T18:15:37.160Z,39.70
2018-12-27T18:18:25.129Z,38.20
2018-12-27T18:21:13.152Z,33.40
2018-12-27T18:24:01.206Z,29.17
2018-12-27T18:27:10.798Z,33.53
2018-12-27T18:33:28.304Z,39.03
2018-12-27T18:36:16.257Z,26.77
2018-12-27T18:38:45.074Z,29.17
2018-12-27T18:41:13.856Z,39.10
2018-12-27T18:44:01.918Z,35.77
2018-12-27T18:46:49.849Z,30.07
2018-12-27T18:49:37.801Z,35.33
2018-12-27T18:52:25.930Z,36.87
2018-12-27T18:55:20.020Z,42.57
2018-12-27T18:58:03.920Z,32.80
2018-12-27T19:09:07.213Z,41.53
2018-12-27T19:12:14.540Z,35.00
2018-12-27T19:15:02.624Z,41.60
2018-12-27T19:18:11.212Z,34.07
2018-12-27T19:21:19.822Z,35.03
2018-12-27T19:24:07.903Z,35.73
2018-12-27T19:26:55.952Z,42.47
2018-12-27T19:29:44.030Z,36.90
2018-12-27T19:32:32.020Z,35.83
2018-12-27T19:35:20.225Z,29.23
2018-12-27T19:38:28.833Z,35.83
2018-12-27T19:41:16.888Z,39.47
2018-12-27T19:44:06.255Z,38.77
2018-12-27T19:46:54.328Z,30.40
2018-12-27T19:52:16.461Z,39.93
2018-12-27T19:55:04.413Z,35.83
2018-12-27T19:57:52.460Z,34.80
2018-12-27T20:00:40.606Z,37.50
2018-12-27T20:03:28.566Z,35.50
2018-12-27T20:06:16.697Z,42.00
2018-12-27T20:08:45.511Z,32.87
2018-12-27T20:11:33.520Z,32.47
2018-12-27T20:14:21.608Z,43.83
2018-12-27T20:17:09.700Z,33.90
2018-12-27T20:19:57.878Z,29.90
2018-12-27T20:22:46.103Z,24.63
2018-12-27T20:25:16.591Z,29.07
2018-12-27T20:27:45.392Z,30.23
2018-12-27T20:30:14.297Z,25.23
2018-12-27T20:33:02.304Z,25.23
2018-12-27T20:35:50.304Z,29.77
2018-12-27T20:38:38.328Z,35.23
2018-12-27T20:41:26.407Z,26.90
2018-12-27T20:44:14.428Z,27.33
2018-12-27T20:47:02.419Z,26.50
2018-12-27T20:49:50.378Z,30.80
2018-12-27T20:52:38.362Z,26.50
2018-12-27T20:55:07.134Z,23.63
2018-12-27T20:57:55.259Z,21.17
2018-12-27T21:00:43.390Z,18.83
2018-12-27T21:03:31.442Z,27.40
2018-12-27T21:06:19.697Z,32.77
2018-12-27T21:09:07.735Z,24.70
2018-12-27T21:11:55.681Z,26.13
2018-12-27T21:14:43.596Z,24.23
2018-12-27T21:17:12.378Z,26.23
2018-12-27T21:20:00.533Z,26.97
2018-12-27T21:22:29.340Z,25.70
2018-12-27T21:25:17.426Z,26.73
2018-12-27T21:28:05.496Z,23.90
2018-12-27T21:30:53.582Z,22.55
2018-12-27T21:33:22.343Z,25.73
2018-12-27T21:36:10.285Z,27.77
2018-12-27T21:38:58.265Z,21.03
2018-12-27T21:41:46.326Z,25.50
2018-12-27T21:44:15.192Z,25.90
2018-12-27T21:47:03.272Z,25.40
2018-12-27T21:49:51.294Z,30.43
2018-12-27T21:52:39.368Z,31.77
2018-12-27T21:55:27.386Z,43.23
2018-12-27T21:58:15.505Z,38.33
2018-12-27T22:01:03.396Z,38.23
2018-12-27T22:03:51.414Z,48.20
2018-12-27T22:06:39.591Z,29.33
2018-12-27T22:09:48.271Z,32.03
2018-12-27T22:12:36.357Z,32.07
2018-12-27T22:15:06.810Z,35.77
2018-12-27T22:17:54.903Z,35.67
2018-12-27T22:20:42.976Z,30.67
2018-12-27T22:23:11.791Z,23.93
2018-12-27T22:25:59.864Z,26.47
2018-12-27T22:28:47.884Z,27.83
2018-12-27T22:31:35.942Z,23.53
2018-12-27T22:34:24.060Z,25.30
2018-12-27T22:37:12.100Z,22.93
2018-12-27T22:40:20.663Z,25.20
2018-12-27T22:43:08.719Z,21.27
2018-12-27T22:45:56.818Z,18.23
2018-12-27T22:48:44.838Z,18.00
2018-12-27T22:51:53.418Z,26.67
2018-12-27T22:54:41.472Z,19.80
2018-12-27T22:57:29.421Z,28.23
2018-12-27T23:03:12.866Z,17.67
2018-12-27T23:06:00.823Z,24.13
2018-12-27T23:08:48.893Z,21.97
2018-12-27T23:14:05.450Z,37.03
2018-12-27T23:16:53.508Z,41.93
2018-12-27T23:19:41.408Z,38.73
2018-12-27T23:22:29.477Z,33.60
2018-12-27T23:25:17.595Z,31.60
2018-12-27T23:28:05.758Z,29.83
2018-12-27T23:30:53.811Z,26.13
2018-12-27T23:33:41.881Z,27.70
2018-12-27T23:36:29.771Z,26.23
2018-12-27T23:39:17.908Z,20.33
2018-12-27T23:42:05.902Z,19.93
2018-12-27T23:44:53.903Z,19.83
2018-12-27T23:47:41.815Z,14.80
2018-12-27T23:53:24.606Z,20.13
2018-12-27T23:56:12.641Z,24.37
2018-12-27T23:59:00.711Z,25.30
